X  Close Metar Aviation Weather Data     ESNL Lycksele Airport
Temperature
1°C Temperature
-7°C Dewpoint
56% Humidity



Wind
10 M/S
22 MPH
35 KM/H
19 KTS



310°
NW
Current Conditions

Partly Cloudy Partly Cloudy
Pressure 1008.92 (hPa) - 29.79 (inHg)
Visibility 5.6 (mile) - 9 (km)
Airport
Airport-code ESNL

Location: Lycksele Airport
Distance: 35 (km)

Metar:
ESNL 031120Z AUTO 31019KT 9000 FEW058/// 01/M07 Q1009 RESHUP

Time: 2021-03-03 12:20 CET